sensor_id;sensor_type;location;lat;lon;timestamp;P1;durP1;ratioP1;P2;durP2;ratioP2
52067;SDS011;60237;52.338;21.228;2023-05-16T00:00:13;104.53;;;13.10;;
52067;SDS011;60237;52.338;21.228;2023-05-16T00:02:40;77.75;;;12.35;;
52067;SDS011;60237;52.338;21.228;2023-05-16T00:05:07;55.92;;;9.73;;
52067;SDS011;60237;52.338;21.228;2023-05-16T00:07:36;216.60;;;19.73;;
52067;SDS011;60237;52.338;21.228;2023-05-16T00:10:02;53.17;;;9.98;;
52067;SDS011;60237;52.338;21.228;2023-05-16T00:12:29;80.05;;;11.55;;
52067;SDS011;60237;52.338;21.228;2023-05-16T00:14:55;145.82;;;16.55;;
52067;SDS011;60237;52.338;21.228;2023-05-16T00:17:22;72.85;;;11.55;;
52067;SDS011;60237;52.338;21.228;2023-05-16T00:19:49;90.95;;;12.20;;
52067;SDS011;60237;52.338;21.228;2023-05-16T00:22:23;131.90;;;14.80;;
52067;SDS011;60237;52.338;21.228;2023-05-16T00:24:50;76.05;;;11.77;;
52067;SDS011;60237;52.338;21.228;2023-05-16T00:27:17;66.25;;;11.38;;
52067;SDS011;60237;52.338;21.228;2023-05-16T00:29:43;118.28;;;13.98;;
52067;SDS011;60237;52.338;21.228;2023-05-16T00:32:11;94.45;;;13.15;;
52067;SDS011;60237;52.338;21.228;2023-05-16T00:34:38;102.65;;;13.13;;
52067;SDS011;60237;52.338;21.228;2023-05-16T00:37:04;118.13;;;13.85;;
52067;SDS011;60237;52.338;21.228;2023-05-16T00:39:31;66.75;;;10.80;;
52067;SDS011;60237;52.338;21.228;2023-05-16T00:41:58;56.60;;;10.10;;
52067;SDS011;60237;52.338;21.228;2023-05-16T00:44:24;144.57;;;16.40;;
52067;SDS011;60237;52.338;21.228;2023-05-16T00:46:51;137.10;;;14.90;;
52067;SDS011;60237;52.338;21.228;2023-05-16T00:49:18;52.22;;;10.70;;
52067;SDS011;60237;52.338;21.228;2023-05-16T00:51:44;80.10;;;12.25;;
52067;SDS011;60237;52.338;21.228;2023-05-16T00:54:11;90.57;;;12.85;;
52067;SDS011;60237;52.338;21.228;2023-05-16T00:56:38;83.25;;;12.30;;
52067;SDS011;60237;52.338;21.228;2023-05-16T00:59:05;51.30;;;10.38;;
52067;SDS011;60237;52.338;21.228;2023-05-16T01:01:32;123.80;;;14.77;;
52067;SDS011;60237;52.338;21.228;2023-05-16T01:03:59;64.30;;;10.88;;
52067;SDS011;60237;52.338;21.228;2023-05-16T01:06:26;94.70;;;13.40;;
52067;SDS011;60237;52.338;21.228;2023-05-16T01:08:53;97.55;;;13.57;;
52067;SDS011;60237;52.338;21.228;2023-05-16T01:19:05;48.63;;;10.93;;
52067;SDS011;60237;52.338;21.228;2023-05-16T01:21:47;94.57;;;15.02;;
52067;SDS011;60237;52.338;21.228;2023-05-16T01:24:39;49.25;;;11.75;;
52067;SDS011;60237;52.338;21.228;2023-05-16T01:27:09;70.97;;;12.88;;
52067;SDS011;60237;52.338;21.228;2023-05-16T01:29:36;96.80;;;14.50;;
52067;SDS011;60237;52.338;21.228;2023-05-16T01:32:03;135.82;;;17.85;;
52067;SDS011;60237;52.338;21.228;2023-05-16T01:34:29;89.43;;;13.77;;
52067;SDS011;60237;52.338;21.228;2023-05-16T01:37:01;45.90;;;12.20;;
52067;SDS011;60237;52.338;21.228;2023-05-16T01:39:43;86.15;;;14.15;;
52067;SDS011;60237;52.338;21.228;2023-05-16T01:42:14;60.45;;;14.23;;
52067;SDS011;60237;52.338;21.228;2023-05-16T01:47:13;67.07;;;13.57;;
52067;SDS011;60237;52.338;21.228;2023-05-16T01:50:16;157.70;;;19.60;;
52067;SDS011;60237;52.338;21.228;2023-05-16T01:52:49;113.25;;;17.00;;
52067;SDS011;60237;52.338;21.228;2023-05-16T01:56:03;72.70;;;13.82;;
52067;SDS011;60237;52.338;21.228;2023-05-16T01:58:05;69.70;;;13.60;;
52067;SDS011;60237;52.338;21.228;2023-05-16T02:03:16;76.40;;;13.32;;
52067;SDS011;60237;52.338;21.228;2023-05-16T02:05:45;118.65;;;16.67;;
52067;SDS011;60237;52.338;21.228;2023-05-16T02:08:12;58.22;;;12.00;;
52067;SDS011;60237;52.338;21.228;2023-05-16T02:10:40;117.45;;;16.27;;
52067;SDS011;60237;52.338;21.228;2023-05-16T02:13:06;104.85;;;15.68;;
52067;SDS011;60237;52.338;21.228;2023-05-16T02:15:33;74.82;;;14.57;;
52067;SDS011;60237;52.338;21.228;2023-05-16T02:18:00;77.78;;;14.75;;
52067;SDS011;60237;52.338;21.228;2023-05-16T02:20:26;140.90;;;18.25;;
52067;SDS011;60237;52.338;21.228;2023-05-16T02:22:53;79.80;;;13.57;;
52067;SDS011;60237;52.338;21.228;2023-05-16T02:25:19;75.38;;;14.30;;
52067;SDS011;60237;52.338;21.228;2023-05-16T02:27:46;105.13;;;16.35;;
52067;SDS011;60237;52.338;21.228;2023-05-16T02:30:12;53.00;;;12.88;;
52067;SDS011;60237;52.338;21.228;2023-05-16T02:32:39;75.05;;;14.55;;
52067;SDS011;60237;52.338;21.228;2023-05-16T02:35:06;114.10;;;16.83;;
52067;SDS011;60237;52.338;21.228;2023-05-16T02:37:33;94.70;;;15.77;;
52067;SDS011;60237;52.338;21.228;2023-05-16T02:40:00;58.45;;;12.88;;
52067;SDS011;60237;52.338;21.228;2023-05-16T02:42:27;157.82;;;19.80;;
52067;SDS011;60237;52.338;21.228;2023-05-16T02:44:54;117.90;;;17.00;;
52067;SDS011;60237;52.338;21.228;2023-05-16T02:47:20;68.50;;;15.50;;
52067;SDS011;60237;52.338;21.228;2023-05-16T02:49:47;131.35;;;17.58;;
52067;SDS011;60237;52.338;21.228;2023-05-16T02:52:14;94.80;;;16.15;;
52067;SDS011;60237;52.338;21.228;2023-05-16T02:54:40;75.25;;;14.10;;
52067;SDS011;60237;52.338;21.228;2023-05-16T02:57:07;97.05;;;15.48;;
52067;SDS011;60237;52.338;21.228;2023-05-16T02:59:34;113.30;;;17.17;;
52067;SDS011;60237;52.338;21.228;2023-05-16T03:02:01;64.38;;;14.73;;
52067;SDS011;60237;52.338;21.228;2023-05-16T03:04:28;133.48;;;18.98;;
52067;SDS011;60237;52.338;21.228;2023-05-16T03:06:54;90.68;;;14.65;;
52067;SDS011;60237;52.338;21.228;2023-05-16T03:09:21;68.30;;;14.18;;
52067;SDS011;60237;52.338;21.228;2023-05-16T03:11:48;97.40;;;16.75;;
52067;SDS011;60237;52.338;21.228;2023-05-16T03:14:17;124.32;;;18.90;;
52067;SDS011;60237;52.338;21.228;2023-05-16T03:16:44;110.80;;;17.90;;
52067;SDS011;60237;52.338;21.228;2023-05-16T03:19:11;79.13;;;15.65;;
52067;SDS011;60237;52.338;21.228;2023-05-16T03:21:39;94.35;;;15.88;;
52067;SDS011;60237;52.338;21.228;2023-05-16T03:24:06;75.88;;;15.40;;
52067;SDS011;60237;52.338;21.228;2023-05-16T03:26:33;89.78;;;16.42;;
52067;SDS011;60237;52.338;21.228;2023-05-16T03:29:00;88.07;;;15.70;;
52067;SDS011;60237;52.338;21.228;2023-05-16T03:31:26;91.68;;;16.20;;
52067;SDS011;60237;52.338;21.228;2023-05-16T03:33:53;76.93;;;15.27;;
52067;SDS011;60237;52.338;21.228;2023-05-16T03:36:20;99.10;;;16.80;;
52067;SDS011;60237;52.338;21.228;2023-05-16T03:38:47;99.97;;;16.98;;
52067;SDS011;60237;52.338;21.228;2023-05-16T03:41:14;63.03;;;13.77;;
52067;SDS011;60237;52.338;21.228;2023-05-16T03:43:40;122.88;;;18.30;;
52067;SDS011;60237;52.338;21.228;2023-05-16T03:46:07;90.38;;;16.63;;
52067;SDS011;60237;52.338;21.228;2023-05-16T03:48:36;88.88;;;15.50;;
52067;SDS011;60237;52.338;21.228;2023-05-16T03:51:03;67.32;;;15.32;;
52067;SDS011;60237;52.338;21.228;2023-05-16T03:53:29;111.25;;;17.05;;
52067;SDS011;60237;52.338;21.228;2023-05-16T03:55:56;92.70;;;14.82;;
52067;SDS011;60237;52.338;21.228;2023-05-16T03:58:22;68.18;;;13.75;;
52067;SDS011;60237;52.338;21.228;2023-05-16T04:00:49;94.15;;;15.02;;
52067;SDS011;60237;52.338;21.228;2023-05-16T04:03:15;50.78;;;11.40;;
52067;SDS011;60237;52.338;21.228;2023-05-16T04:05:42;106.80;;;15.88;;
52067;SDS011;60237;52.338;21.228;2023-05-16T04:08:09;105.63;;;15.88;;
52067;SDS011;60237;52.338;21.228;2023-05-16T04:10:35;89.97;;;13.48;;
52067;SDS011;60237;52.338;21.228;2023-05-16T04:13:02;71.50;;;11.90;;
52067;SDS011;60237;52.338;21.228;2023-05-16T04:15:28;107.13;;;13.35;;
52067;SDS011;60237;52.338;21.228;2023-05-16T04:17:55;55.17;;;10.02;;
52067;SDS011;60237;52.338;21.228;2023-05-16T04:20:22;81.28;;;11.73;;
52067;SDS011;60237;52.338;21.228;2023-05-16T04:22:48;149.43;;;16.30;;
52067;SDS011;60237;52.338;21.228;2023-05-16T04:25:15;66.90;;;10.65;;
52067;SDS011;60237;52.338;21.228;2023-05-16T04:27:41;83.15;;;10.70;;
52067;SDS011;60237;52.338;21.228;2023-05-16T04:30:08;77.22;;;11.38;;
52067;SDS011;60237;52.338;21.228;2023-05-16T04:32:36;62.00;;;10.15;;
52067;SDS011;60237;52.338;21.228;2023-05-16T04:35:03;69.22;;;11.13;;
52067;SDS011;60237;52.338;21.228;2023-05-16T04:37:29;103.30;;;12.65;;
52067;SDS011;60237;52.338;21.228;2023-05-16T04:39:56;119.82;;;13.23;;
52067;SDS011;60237;52.338;21.228;2023-05-16T04:42:24;87.00;;;11.45;;
52067;SDS011;60237;52.338;21.228;2023-05-16T04:44:50;96.10;;;11.27;;
52067;SDS011;60237;52.338;21.228;2023-05-16T04:47:18;130.75;;;13.18;;
52067;SDS011;60237;52.338;21.228;2023-05-16T04:49:44;122.18;;;12.95;;
52067;SDS011;60237;52.338;21.228;2023-05-16T04:52:11;55.30;;;8.85;;
52067;SDS011;60237;52.338;21.228;2023-05-16T04:54:37;122.65;;;13.05;;
52067;SDS011;60237;52.338;21.228;2023-05-16T04:57:04;87.15;;;10.60;;
52067;SDS011;60237;52.338;21.228;2023-05-16T04:59:31;61.33;;;8.73;;
52067;SDS011;60237;52.338;21.228;2023-05-16T05:01:58;118.20;;;12.38;;
52067;SDS011;60237;52.338;21.228;2023-05-16T05:04:24;87.97;;;10.75;;
52067;SDS011;60237;52.338;21.228;2023-05-16T05:06:51;56.10;;;8.23;;
52067;SDS011;60237;52.338;21.228;2023-05-16T05:09:18;113.55;;;12.32;;
52067;SDS011;60237;52.338;21.228;2023-05-16T05:11:44;66.35;;;9.25;;
52067;SDS011;60237;52.338;21.228;2023-05-16T05:14:11;53.40;;;7.90;;
52067;SDS011;60237;52.338;21.228;2023-05-16T05:16:38;214.63;;;18.27;;
52067;SDS011;60237;52.338;21.228;2023-05-16T05:19:05;63.72;;;8.50;;
52067;SDS011;60237;52.338;21.228;2023-05-16T05:21:31;59.50;;;8.48;;
52067;SDS011;60237;52.338;21.228;2023-05-16T05:23:58;93.22;;;10.95;;
52067;SDS011;60237;52.338;21.228;2023-05-16T05:26:24;80.65;;;10.05;;
52067;SDS011;60237;52.338;21.228;2023-05-16T05:28:51;90.35;;;10.55;;
52067;SDS011;60237;52.338;21.228;2023-05-16T05:31:30;117.85;;;12.73;;
52067;SDS011;60237;52.338;21.228;2023-05-16T05:33:59;73.68;;;10.45;;
52067;SDS011;60237;52.338;21.228;2023-05-16T05:36:26;92.82;;;11.60;;
52067;SDS011;60237;52.338;21.228;2023-05-16T05:38:52;131.23;;;13.43;;
52067;SDS011;60237;52.338;21.228;2023-05-16T05:41:19;86.03;;;11.45;;
52067;SDS011;60237;52.338;21.228;2023-05-16T05:43:46;110.35;;;12.40;;
52067;SDS011;60237;52.338;21.228;2023-05-16T05:46:13;110.63;;;12.80;;
52067;SDS011;60237;52.338;21.228;2023-05-16T05:48:40;93.13;;;11.80;;
52067;SDS011;60237;52.338;21.228;2023-05-16T05:51:06;83.40;;;11.20;;
52067;SDS011;60237;52.338;21.228;2023-05-16T05:53:33;162.70;;;15.85;;
52067;SDS011;60237;52.338;21.228;2023-05-16T05:55:59;86.72;;;11.10;;
52067;SDS011;60237;52.338;21.228;2023-05-16T05:58:26;71.75;;;9.82;;
52067;SDS011;60237;52.338;21.228;2023-05-16T06:00:52;128.40;;;14.57;;
52067;SDS011;60237;52.338;21.228;2023-05-16T06:03:19;53.78;;;10.05;;
52067;SDS011;60237;52.338;21.228;2023-05-16T06:05:46;71.35;;;11.05;;
52067;SDS011;60237;52.338;21.228;2023-05-16T06:08:13;95.38;;;12.73;;
52067;SDS011;60237;52.338;21.228;2023-05-16T06:10:40;134.13;;;15.15;;
52067;SDS011;60237;52.338;21.228;2023-05-16T06:13:06;63.75;;;10.60;;
52067;SDS011;60237;52.338;21.228;2023-05-16T06:15:33;79.68;;;11.88;;
52067;SDS011;60237;52.338;21.228;2023-05-16T06:17:59;80.63;;;11.18;;
52067;SDS011;60237;52.338;21.228;2023-05-16T06:20:26;91.85;;;11.95;;
52067;SDS011;60237;52.338;21.228;2023-05-16T06:22:52;99.90;;;12.30;;
52067;SDS011;60237;52.338;21.228;2023-05-16T06:25:19;105.07;;;12.48;;
52067;SDS011;60237;52.338;21.228;2023-05-16T06:27:45;41.83;;;8.23;;
52067;SDS011;60237;52.338;21.228;2023-05-16T06:30:12;68.38;;;10.90;;
52067;SDS011;60237;52.338;21.228;2023-05-16T06:32:38;117.57;;;13.63;;
52067;SDS011;60237;52.338;21.228;2023-05-16T06:35:07;56.70;;;9.80;;
52067;SDS011;60237;52.338;21.228;2023-05-16T06:37:34;75.05;;;10.57;;
52067;SDS011;60237;52.338;21.228;2023-05-16T06:40:01;108.35;;;13.60;;
52067;SDS011;60237;52.338;21.228;2023-05-16T06:42:27;78.35;;;11.50;;
52067;SDS011;60237;52.338;21.228;2023-05-16T06:44:54;59.72;;;10.05;;
52067;SDS011;60237;52.338;21.228;2023-05-16T06:47:21;112.85;;;13.55;;
52067;SDS011;60237;52.338;21.228;2023-05-16T06:49:47;96.55;;;12.70;;
52067;SDS011;60237;52.338;21.228;2023-05-16T06:52:14;75.18;;;11.68;;
52067;SDS011;60237;52.338;21.228;2023-05-16T06:54:41;126.28;;;15.48;;
52067;SDS011;60237;52.338;21.228;2023-05-16T06:57:07;67.93;;;11.38;;
52067;SDS011;60237;52.338;21.228;2023-05-16T06:59:34;66.40;;;11.13;;
52067;SDS011;60237;52.338;21.228;2023-05-16T07:02:01;114.95;;;14.07;;
52067;SDS011;60237;52.338;21.228;2023-05-16T07:04:28;96.70;;;12.80;;
52067;SDS011;60237;52.338;21.228;2023-05-16T07:06:54;62.85;;;10.32;;
52067;SDS011;60237;52.338;21.228;2023-05-16T07:09:21;103.97;;;12.65;;
52067;SDS011;60237;52.338;21.228;2023-05-16T07:11:47;115.20;;;13.75;;
52067;SDS011;60237;52.338;21.228;2023-05-16T07:14:14;61.80;;;10.30;;
52067;SDS011;60237;52.338;21.228;2023-05-16T07:16:40;123.65;;;13.82;;
52067;SDS011;60237;52.338;21.228;2023-05-16T07:19:07;124.28;;;14.63;;
52067;SDS011;60237;52.338;21.228;2023-05-16T07:21:34;89.10;;;11.73;;
52067;SDS011;60237;52.338;21.228;2023-05-16T07:24:01;53.95;;;10.02;;
52067;SDS011;60237;52.338;21.228;2023-05-16T07:26:27;141.77;;;15.05;;
52067;SDS011;60237;52.338;21.228;2023-05-16T07:28:54;82.68;;;10.48;;
52067;SDS011;60237;52.338;21.228;2023-05-16T07:31:21;64.65;;;9.52;;
52067;SDS011;60237;52.338;21.228;2023-05-16T07:33:47;134.40;;;15.07;;
52067;SDS011;60237;52.338;21.228;2023-05-16T07:36:14;46.53;;;8.10;;
52067;SDS011;60237;52.338;21.228;2023-05-16T07:38:43;74.53;;;10.18;;
52067;SDS011;60237;52.338;21.228;2023-05-16T07:41:10;121.40;;;12.93;;
52067;SDS011;60237;52.338;21.228;2023-05-16T07:43:36;97.38;;;11.13;;
52067;SDS011;60237;52.338;21.228;2023-05-16T07:46:03;35.22;;;7.90;;
52067;SDS011;60237;52.338;21.228;2023-05-16T07:48:30;124.00;;;13.02;;
52067;SDS011;60237;52.338;21.228;2023-05-16T07:50:56;54.78;;;8.35;;
52067;SDS011;60237;52.338;21.228;2023-05-16T07:53:23;72.65;;;9.10;;
52067;SDS011;60237;52.338;21.228;2023-05-16T07:55:50;157.88;;;15.00;;
52067;SDS011;60237;52.338;21.228;2023-05-16T07:58:16;61.60;;;8.40;;
52067;SDS011;60237;52.338;21.228;2023-05-16T08:00:43;40.90;;;7.65;;
52067;SDS011;60237;52.338;21.228;2023-05-16T08:03:10;124.10;;;12.93;;
52067;SDS011;60237;52.338;21.228;2023-05-16T08:05:36;76.60;;;9.80;;
52067;SDS011;60237;52.338;21.228;2023-05-16T08:08:03;32.45;;;6.25;;
52067;SDS011;60237;52.338;21.228;2023-05-16T08:10:30;106.38;;;11.18;;
52067;SDS011;60237;52.338;21.228;2023-05-16T08:12:56;69.95;;;7.85;;
52067;SDS011;60237;52.338;21.228;2023-05-16T08:15:23;65.97;;;8.43;;
52067;SDS011;60237;52.338;21.228;2023-05-16T08:17:50;95.50;;;9.68;;
52067;SDS011;60237;52.338;21.228;2023-05-16T08:20:17;71.05;;;8.27;;
52067;SDS011;60237;52.338;21.228;2023-05-16T08:22:43;83.43;;;8.43;;
52067;SDS011;60237;52.338;21.228;2023-05-16T08:25:10;64.55;;;7.47;;
52067;SDS011;60237;52.338;21.228;2023-05-16T08:27:36;83.30;;;8.75;;
52067;SDS011;60237;52.338;21.228;2023-05-16T08:30:03;31.75;;;5.25;;
52067;SDS011;60237;52.338;21.228;2023-05-16T08:32:30;65.45;;;7.25;;
52067;SDS011;60237;52.338;21.228;2023-05-16T08:34:56;150.43;;;12.70;;
52067;SDS011;60237;52.338;21.228;2023-05-16T08:37:23;60.70;;;7.00;;
52067;SDS011;60237;52.338;21.228;2023-05-16T08:39:50;69.75;;;7.35;;
52067;SDS011;60237;52.338;21.228;2023-05-16T08:42:16;128.10;;;10.85;;
52067;SDS011;60237;52.338;21.228;2023-05-16T08:44:43;85.82;;;8.02;;
52067;SDS011;60237;52.338;21.228;2023-05-16T08:47:14;44.70;;;5.93;;
52067;SDS011;60237;52.338;21.228;2023-05-16T08:49:43;141.60;;;12.05;;
52067;SDS011;60237;52.338;21.228;2023-05-16T08:52:12;42.90;;;5.70;;
52067;SDS011;60237;52.338;21.228;2023-05-16T08:54:39;70.65;;;7.88;;
52067;SDS011;60237;52.338;21.228;2023-05-16T08:57:06;106.72;;;10.60;;
52067;SDS011;60237;52.338;21.228;2023-05-16T08:59:34;54.22;;;6.72;;
52067;SDS011;60237;52.338;21.228;2023-05-16T09:02:00;114.38;;;10.43;;
52067;SDS011;60237;52.338;21.228;2023-05-16T09:04:27;121.75;;;10.52;;
52067;SDS011;60237;52.338;21.228;2023-05-16T09:06:54;55.10;;;6.22;;
52067;SDS011;60237;52.338;21.228;2023-05-16T09:09:21;55.40;;;6.32;;
52067;SDS011;60237;52.338;21.228;2023-05-16T09:11:47;121.20;;;11.15;;
52067;SDS011;60237;52.338;21.228;2023-05-16T09:14:14;50.22;;;5.78;;
52067;SDS011;60237;52.338;21.228;2023-05-16T09:16:40;77.40;;;7.07;;
52067;SDS011;60237;52.338;21.228;2023-05-16T09:19:11;70.97;;;7.00;;
52067;SDS011;60237;52.338;21.228;2023-05-16T09:21:38;38.00;;;4.90;;
52067;SDS011;60237;52.338;21.228;2023-05-16T09:24:05;43.08;;;5.00;;
52067;SDS011;60237;52.338;21.228;2023-05-16T09:26:36;88.93;;;7.97;;
52067;SDS011;60237;52.338;21.228;2023-05-16T09:29:09;70.82;;;6.95;;
52067;SDS011;60237;52.338;21.228;2023-05-16T09:34:06;78.93;;;7.53;;
52067;SDS011;60237;52.338;21.228;2023-05-16T09:36:33;54.45;;;5.63;;
52067;SDS011;60237;52.338;21.228;2023-05-16T09:38:59;94.03;;;8.27;;
52067;SDS011;60237;52.338;21.228;2023-05-16T09:41:26;95.03;;;8.40;;
52067;SDS011;60237;52.338;21.228;2023-05-16T09:43:53;88.38;;;7.90;;
52067;SDS011;60237;52.338;21.228;2023-05-16T09:46:23;79.82;;;7.00;;
52067;SDS011;60237;52.338;21.228;2023-05-16T09:48:51;56.08;;;5.40;;
52067;SDS011;60237;52.338;21.228;2023-05-16T09:51:20;67.20;;;6.53;;
52067;SDS011;60237;52.338;21.228;2023-05-16T09:53:46;103.65;;;8.77;;
52067;SDS011;60237;52.338;21.228;2023-05-16T09:56:14;98.00;;;7.93;;
52067;SDS011;60237;52.338;21.228;2023-05-16T09:58:41;65.82;;;6.03;;
52067;SDS011;60237;52.338;21.228;2023-05-16T10:01:08;93.32;;;8.25;;
52067;SDS011;60237;52.338;21.228;2023-05-16T10:03:36;116.45;;;10.00;;
52067;SDS011;60237;52.338;21.228;2023-05-16T10:06:04;57.55;;;6.15;;
52067;SDS011;60237;52.338;21.228;2023-05-16T10:08:32;94.90;;;8.27;;
52067;SDS011;60237;52.338;21.228;2023-05-16T10:11:04;80.50;;;7.00;;
52067;SDS011;60237;52.338;21.228;2023-05-16T10:13:32;85.55;;;7.32;;
52067;SDS011;60237;52.338;21.228;2023-05-16T10:16:00;118.75;;;9.13;;
52067;SDS011;60237;52.338;21.228;2023-05-16T10:18:28;61.22;;;5.70;;
52067;SDS011;60237;52.338;21.228;2023-05-16T10:20:56;84.93;;;7.10;;
52067;SDS011;60237;52.338;21.228;2023-05-16T10:23:24;117.07;;;9.02;;
52067;SDS011;60237;52.338;21.228;2023-05-16T10:25:51;100.75;;;8.23;;
52067;SDS011;60237;52.338;21.228;2023-05-16T10:28:17;74.20;;;6.55;;
52067;SDS011;60237;52.338;21.228;2023-05-16T10:30:45;49.50;;;5.20;;
52067;SDS011;60237;52.338;21.228;2023-05-16T10:33:15;59.30;;;5.57;;
52067;SDS011;60237;52.338;21.228;2023-05-16T10:35:43;86.75;;;7.22;;
52067;SDS011;60237;52.338;21.228;2023-05-16T10:38:10;82.35;;;7.35;;
52067;SDS011;60237;52.338;21.228;2023-05-16T10:40:38;44.42;;;5.00;;
52067;SDS011;60237;52.338;21.228;2023-05-16T10:43:05;67.00;;;6.13;;
52067;SDS011;60237;52.338;21.228;2023-05-16T10:45:33;88.72;;;7.35;;
52067;SDS011;60237;52.338;21.228;2023-05-16T10:48:02;72.90;;;5.80;;
52067;SDS011;60237;52.338;21.228;2023-05-16T10:53:14;110.93;;;8.63;;
52067;SDS011;60237;52.338;21.228;2023-05-16T10:56:25;67.38;;;6.15;;
52067;SDS011;60237;52.338;21.228;2023-05-16T11:03:55;70.05;;;6.40;;
52067;SDS011;60237;52.338;21.228;2023-05-16T11:06:26;78.82;;;7.20;;
52067;SDS011;60237;52.338;21.228;2023-05-16T11:11:42;83.78;;;7.18;;
52067;SDS011;60237;52.338;21.228;2023-05-16T11:14:20;104.05;;;9.02;;
52067;SDS011;60237;52.338;21.228;2023-05-16T11:19:38;129.60;;;10.17;;
52067;SDS011;60237;52.338;21.228;2023-05-16T11:22:24;77.38;;;6.57;;
52067;SDS011;60237;52.338;21.228;2023-05-16T11:32:33;77.90;;;6.78;;
52067;SDS011;60237;52.338;21.228;2023-05-16T11:35:00;88.57;;;7.25;;
52067;SDS011;60237;52.338;21.228;2023-05-16T11:37:30;46.55;;;4.75;;
52067;SDS011;60237;52.338;21.228;2023-05-16T11:40:00;73.32;;;6.45;;
52067;SDS011;60237;52.338;21.228;2023-05-16T11:42:28;114.07;;;9.32;;
52067;SDS011;60237;52.338;21.228;2023-05-16T11:45:08;73.78;;;6.63;;
52067;SDS011;60237;52.338;21.228;2023-05-16T11:47:35;63.05;;;6.38;;
52067;SDS011;60237;52.338;21.228;2023-05-16T11:50:12;98.32;;;8.18;;
52067;SDS011;60237;52.338;21.228;2023-05-16T11:52:40;58.38;;;5.15;;
52067;SDS011;60237;52.338;21.228;2023-05-16T11:55:08;99.88;;;8.10;;
52067;SDS011;60237;52.338;21.228;2023-05-16T11:57:53;82.38;;;6.97;;
52067;SDS011;60237;52.338;21.228;2023-05-16T12:00:21;72.15;;;6.28;;
52067;SDS011;60237;52.338;21.228;2023-05-16T12:02:48;63.80;;;5.72;;
52067;SDS011;60237;52.338;21.228;2023-05-16T12:05:18;58.05;;;5.65;;
52067;SDS011;60237;52.338;21.228;2023-05-16T12:07:51;134.68;;;10.57;;
52067;SDS011;60237;52.338;21.228;2023-05-16T12:10:20;89.13;;;7.57;;
52067;SDS011;60237;52.338;21.228;2023-05-16T12:12:47;58.97;;;5.07;;
52067;SDS011;60237;52.338;21.228;2023-05-16T12:15:14;91.18;;;7.00;;
52067;SDS011;60237;52.338;21.228;2023-05-16T12:17:41;64.18;;;5.57;;
52067;SDS011;60237;52.338;21.228;2023-05-16T12:20:08;51.58;;;4.95;;
52067;SDS011;60237;52.338;21.228;2023-05-16T12:22:39;102.63;;;8.13;;
52067;SDS011;60237;52.338;21.228;2023-05-16T12:27:52;97.60;;;7.85;;
52067;SDS011;60237;52.338;21.228;2023-05-16T12:30:20;65.85;;;5.70;;
52067;SDS011;60237;52.338;21.228;2023-05-16T12:32:51;41.08;;;3.92;;
52067;SDS011;60237;52.338;21.228;2023-05-16T12:35:18;114.85;;;9.10;;
52067;SDS011;60237;52.338;21.228;2023-05-16T12:37:45;118.10;;;8.85;;
52067;SDS011;60237;52.338;21.228;2023-05-16T12:40:11;66.63;;;5.63;;
52067;SDS011;60237;52.338;21.228;2023-05-16T12:42:38;140.43;;;10.57;;
52067;SDS011;60237;52.338;21.228;2023-05-16T12:45:05;88.32;;;7.30;;
52067;SDS011;60237;52.338;21.228;2023-05-16T12:47:39;75.32;;;6.63;;
52067;SDS011;60237;52.338;21.228;2023-05-16T12:50:10;133.27;;;10.23;;
52067;SDS011;60237;52.338;21.228;2023-05-16T12:52:46;59.28;;;5.32;;
52067;SDS011;60237;52.338;21.228;2023-05-16T12:55:13;120.25;;;9.02;;
52067;SDS011;60237;52.338;21.228;2023-05-16T12:57:40;87.20;;;6.90;;
52067;SDS011;60237;52.338;21.228;2023-05-16T13:00:08;57.38;;;5.03;;
52067;SDS011;60237;52.338;21.228;2023-05-16T13:02:37;136.68;;;10.07;;
52067;SDS011;60237;52.338;21.228;2023-05-16T13:05:04;146.98;;;11.18;;
52067;SDS011;60237;52.338;21.228;2023-05-16T13:07:33;84.32;;;6.95;;
52067;SDS011;60237;52.338;21.228;2023-05-16T13:10:00;114.63;;;8.82;;
52067;SDS011;60237;52.338;21.228;2023-05-16T13:12:27;133.05;;;10.25;;
52067;SDS011;60237;52.338;21.228;2023-05-16T13:14:54;93.15;;;7.35;;
52067;SDS011;60237;52.338;21.228;2023-05-16T13:17:21;97.38;;;7.50;;
52067;SDS011;60237;52.338;21.228;2023-05-16T13:19:49;145.52;;;10.73;;
52067;SDS011;60237;52.338;21.228;2023-05-16T13:22:15;92.53;;;7.28;;
52067;SDS011;60237;52.338;21.228;2023-05-16T13:24:42;92.32;;;7.55;;
52067;SDS011;60237;52.338;21.228;2023-05-16T13:27:08;115.35;;;8.68;;
52067;SDS011;60237;52.338;21.228;2023-05-16T13:29:35;82.45;;;6.60;;
52067;SDS011;60237;52.338;21.228;2023-05-16T13:32:02;82.50;;;7.15;;
52067;SDS011;60237;52.338;21.228;2023-05-16T13:34:29;123.80;;;9.88;;
52067;SDS011;60237;52.338;21.228;2023-05-16T13:36:55;44.22;;;5.13;;
52067;SDS011;60237;52.338;21.228;2023-05-16T13:39:22;65.55;;;5.57;;
52067;SDS011;60237;52.338;21.228;2023-05-16T13:41:49;124.85;;;9.70;;
52067;SDS011;60237;52.338;21.228;2023-05-16T13:44:16;52.78;;;5.03;;
52067;SDS011;60237;52.338;21.228;2023-05-16T13:46:43;67.90;;;6.10;;
52067;SDS011;60237;52.338;21.228;2023-05-16T13:49:10;126.05;;;9.38;;
52067;SDS011;60237;52.338;21.228;2023-05-16T13:51:36;42.25;;;4.18;;
52067;SDS011;60237;52.338;21.228;2023-05-16T13:54:03;57.70;;;4.97;;
52067;SDS011;60237;52.338;21.228;2023-05-16T13:56:29;98.65;;;7.97;;
52067;SDS011;60237;52.338;21.228;2023-05-16T13:58:56;77.25;;;6.15;;
52067;SDS011;60237;52.338;21.228;2023-05-16T14:01:31;64.00;;;5.63;;
52067;SDS011;60237;52.338;21.228;2023-05-16T14:03:58;103.53;;;7.72;;
52067;SDS011;60237;52.338;21.228;2023-05-16T14:06:25;62.63;;;5.60;;
52067;SDS011;60237;52.338;21.228;2023-05-16T14:08:52;39.20;;;4.43;;
52067;SDS011;60237;52.338;21.228;2023-05-16T14:11:18;129.50;;;9.63;;
52067;SDS011;60237;52.338;21.228;2023-05-16T14:13:45;59.10;;;5.10;;
52067;SDS011;60237;52.338;21.228;2023-05-16T14:16:11;62.28;;;5.35;;
52067;SDS011;60237;52.338;21.228;2023-05-16T14:18:38;96.13;;;7.45;;
52067;SDS011;60237;52.338;21.228;2023-05-16T14:21:05;62.47;;;5.03;;
52067;SDS011;60237;52.338;21.228;2023-05-16T14:23:31;76.72;;;6.10;;
52067;SDS011;60237;52.338;21.228;2023-05-16T14:25:59;165.43;;;11.93;;
52067;SDS011;60237;52.338;21.228;2023-05-16T14:28:26;63.97;;;5.65;;
52067;SDS011;60237;52.338;21.228;2023-05-16T14:30:53;59.85;;;5.25;;
52067;SDS011;60237;52.338;21.228;2023-05-16T14:33:19;142.57;;;10.70;;
52067;SDS011;60237;52.338;21.228;2023-05-16T14:35:46;72.38;;;6.22;;
52067;SDS011;60237;52.338;21.228;2023-05-16T14:38:15;62.17;;;5.35;;
52067;SDS011;60237;52.338;21.228;2023-05-16T14:40:42;94.28;;;7.63;;
52067;SDS011;60237;52.338;21.228;2023-05-16T14:43:08;58.70;;;5.25;;
52067;SDS011;60237;52.338;21.228;2023-05-16T14:45:36;71.40;;;6.03;;
52067;SDS011;60237;52.338;21.228;2023-05-16T14:48:02;112.10;;;9.35;;
52067;SDS011;60237;52.338;21.228;2023-05-16T14:50:32;51.10;;;4.95;;
52067;SDS011;60237;52.338;21.228;2023-05-16T14:52:58;75.25;;;6.30;;